PWSweather.com
Personal Weather Stations
Station Observations
KTXPLANO70
Kemper Estates, Plano, TX

Kemper EstatesPlano, TX

Lat: 33.0674, Lon: -96.7659

Elevation: 737

Station Type: Davis Vantage Pro2

http://weather.dallasdawg.com

Latest ConditionsUpdated 10:45:01 AM CST Sunday, Jan 21, 2018
Currently Today's Max Today's Min Today's Average
Temperature 68.7°F20.4°C 69.2°F20.7°C 61.3°F16.3°C 63.0°F17.2°C
Dew Point 61.6°F16.4°C 62.2°F16.8°C 57.6°F14.2°C 59.1°F15.1°C
Winds 6.9 mph SSE11.1 kmh SSE 12.7 mph SSE20.4 kmh SSE - 7.2 mph 11.6 kmh
Wind Gusts 11.5 mph18.5 kmh 24.2 mph38.9 kmh - -
Humidity 78% 90% 77% 87%
Pressure 29.87 in1011.5 mb 29.91 in1012.9 mb 29.87 in1011.5 mb -
Hour Temp Dew Point Humidity Winds Wind Gusts Pressure Precip Precip Rate Daily Precip Total
10:45 AM 68.7°F20.4°C 61.6°F16.4°C 78% 6.9 mph SSE11.1 kmh SSE 11.5 mph18.5 kmh 29.87 in1011.5 mb - 0.00 in0.0 mm 0.00 in0.0 mm
10:40 AM 68.9°F20.5°C 61.7°F16.5°C 78% 12.7 mph SE20.4 kmh SE 24.2 mph38.9 kmh 29.87 in1011.5 mb - 0.00 in0.0 mm 0.00 in0.0 mm
10:35 AM 69.2°F20.7°C 61.7°F16.5°C 77% 9.2 mph S14.8 kmh S 12.7 mph20.4 kmh 29.88 in1011.9 mb - 0.00 in0.0 mm 0.00 in0.0 mm
10:30 AM 68.7°F20.4°C 61.9°F16.6°C 79% 12.7 mph SSE20.4 kmh SSE 15.0 mph24.1 kmh 29.88 in1011.9 mb - 0.00 in0.0 mm 0.00 in0.0 mm
10:25 AM 68.2°F20.1°C 62.1°F16.7°C 81% 9.2 mph SSE14.8 kmh SSE 16.1 mph25.9 kmh 29.88 in1011.9 mb - 0.00 in0.0 mm 0.00 in0.0 mm
10:20 AM 67.8°F19.9°C 61.8°F16.6°C 81% 8.1 mph SSE13.0 kmh SSE 10.4 mph16.7 kmh 29.88 in1011.9 mb - 0.00 in0.0 mm 0.00 in0.0 mm
10:15 AM 67.7°F19.8°C 61.7°F16.5°C 81% 11.5 mph SSE18.5 kmh SSE 23.0 mph37.0 kmh 29.88 in1011.9 mb - 0.00 in0.0 mm 0.00 in0.0 mm
10:10 AM 67.6°F19.8°C 62.2°F16.8°C 83% 11.5 mph SSE18.5 kmh SSE 17.3 mph27.8 kmh 29.88 in1011.9 mb - 0.00 in0.0 mm 0.00 in0.0 mm
10:05 AM 67.0°F19.4°C 62.0°F16.7°C 84% 10.4 mph S16.7 kmh S 13.8 mph22.2 kmh 29.88 in1011.9 mb - 0.00 in0.0 mm 0.00 in0.0 mm
10:00 AM 66.7°F19.3°C 61.7°F16.5°C 84% 6.9 mph SE11.1 kmh SE 10.4 mph16.7 kmh 29.88 in1011.9 mb - 0.00 in0.0 mm 0.00 in0.0 mm
09:55 AM 66.6°F19.2°C 61.6°F16.4°C 84% 10.4 mph SSE16.7 kmh SSE 17.3 mph27.8 kmh 29.88 in1011.9 mb - 0.00 in0.0 mm 0.00 in0.0 mm
09:50 AM 66.5°F19.2°C 61.9°F16.6°C 85% 6.9 mph SE11.1 kmh SE 17.3 mph27.8 kmh 29.88 in1011.9 mb - 0.00 in0.0 mm 0.00 in0.0 mm
09:45 AM 66.1°F18.9°C 61.7°F16.5°C 86% 5.8 mph SSE9.3 kmh SSE 13.8 mph22.2 kmh 29.88 in1011.9 mb - 0.00 in0.0 mm 0.00 in0.0 mm
09:40 AM 66.0°F18.9°C 61.4°F16.3°C 85% 10.4 mph SE16.7 kmh SE 9.2 mph14.8 kmh 29.88 in1011.9 mb - 0.00 in0.0 mm 0.00 in0.0 mm
09:35 AM 66.0°F18.9°C 61.7°F16.5°C 86% 10.4 mph SE16.7 kmh SE 12.7 mph20.4 kmh 29.88 in1011.9 mb - 0.00 in0.0 mm 0.00 in0.0 mm
09:30 AM 65.8°F18.8°C 61.5°F16.4°C 86% 10.4 mph SE16.7 kmh SE 12.7 mph20.4 kmh 29.88 in1011.9 mb - 0.00 in0.0 mm 0.00 in0.0 mm
09:25 AM 65.2°F18.4°C 61.3°F16.3°C 87% 8.1 mph SSE13.0 kmh SSE 12.7 mph20.4 kmh 29.88 in1011.9 mb - 0.00 in0.0 mm 0.00 in0.0 mm
09:20 AM 64.9°F18.3°C 61.2°F16.2°C 88% 8.1 mph SE13.0 kmh SE 10.4 mph16.7 kmh 29.89 in1012.2 mb - 0.00 in0.0 mm 0.00 in0.0 mm
09:15 AM 64.7°F18.2°C 61.1°F16.2°C 88% 5.8 mph SSE9.3 kmh SSE 11.5 mph18.5 kmh 29.89 in1012.2 mb - 0.00 in0.0 mm 0.00 in0.0 mm
09:10 AM 64.6°F18.1°C 61.0°F16.1°C 88% 8.1 mph SE13.0 kmh SE 13.8 mph22.2 kmh 29.89 in1012.2 mb - 0.00 in0.0 mm 0.00 in0.0 mm
09:05 AM 64.6°F18.1°C 60.9°F16.1°C 88% 5.8 mph SE9.3 kmh SE 13.8 mph22.2 kmh 29.89 in1012.2 mb - 0.00 in0.0 mm 0.00 in0.0 mm
09:00 AM 64.4°F18.0°C 61.0°F16.1°C 89% 9.2 mph SE14.8 kmh SE 10.4 mph16.7 kmh 29.88 in1011.9 mb - 0.00 in0.0 mm 0.00 in0.0 mm
08:55 AM 64.2°F17.9°C 60.9°F16.1°C 89% 5.8 mph SE9.3 kmh SE 13.8 mph22.2 kmh 29.89 in1012.2 mb - 0.00 in0.0 mm 0.00 in0.0 mm
08:50 AM 64.0°F17.8°C 60.7°F15.9°C 89% 5.8 mph SE9.3 kmh SE 11.5 mph18.5 kmh 29.89 in1012.2 mb - 0.00 in0.0 mm 0.00 in0.0 mm
08:45 AM 63.8°F17.7°C 60.5°F15.8°C 89% 6.9 mph SSE11.1 kmh SSE 12.7 mph20.4 kmh 29.89 in1012.2 mb - 0.00 in0.0 mm 0.00 in0.0 mm
08:40 AM 63.7°F17.6°C 60.4°F15.8°C 89% 6.9 mph SE11.1 kmh SE 12.7 mph20.4 kmh 29.88 in1011.9 mb - 0.00 in0.0 mm 0.00 in0.0 mm
08:35 AM 63.5°F17.5°C 60.2°F15.7°C 89% 6.9 mph SSE11.1 kmh SSE 12.7 mph20.4 kmh 29.89 in1012.2 mb - 0.00 in0.0 mm 0.00 in0.0 mm
08:30 AM 63.4°F17.4°C 60.4°F15.8°C 90% 6.9 mph SE11.1 kmh SE 10.4 mph16.7 kmh 29.89 in1012.2 mb - 0.00 in0.0 mm 0.00 in0.0 mm
08:25 AM 63.3°F17.4°C 60.3°F15.7°C 90% 6.9 mph SE11.1 kmh SE 6.9 mph11.1 kmh 29.88 in1011.9 mb - 0.00 in0.0 mm 0.00 in0.0 mm
08:20 AM 63.3°F17.4°C 60.0°F15.6°C 89% 5.8 mph SE9.3 kmh SE 10.4 mph16.7 kmh 29.88 in1011.9 mb - 0.00 in0.0 mm 0.00 in0.0 mm
08:15 AM 63.3°F17.4°C 60.0°F15.6°C 89% 5.8 mph SE9.3 kmh SE 5.8 mph9.3 kmh 29.88 in1011.9 mb - 0.00 in0.0 mm 0.00 in0.0 mm
08:10 AM 63.1°F17.3°C 59.8°F15.4°C 89% 5.8 mph SE9.3 kmh SE 9.2 mph14.8 kmh 29.88 in1011.9 mb - 0.00 in0.0 mm 0.00 in0.0 mm
08:05 AM 62.8°F17.1°C 59.9°F15.5°C 90% 9.2 mph SSE14.8 kmh SSE 15.0 mph24.1 kmh 29.88 in1011.9 mb - 0.00 in0.0 mm 0.00 in0.0 mm
08:00 AM 62.8°F17.1°C 59.5°F15.3°C 89% 4.6 mph SSE7.4 kmh SSE 8.1 mph13.0 kmh 29.88 in1011.9 mb - 0.00 in0.0 mm 0.00 in0.0 mm
07:55 AM 62.8°F17.1°C 59.5°F15.3°C 89% 4.6 mph SSE7.4 kmh SSE 10.4 mph16.7 kmh 29.88 in1011.9 mb - 0.00 in0.0 mm 0.00 in0.0 mm
07:50 AM 62.7°F17.1°C 59.4°F15.2°C 89% 4.6 mph SSE7.4 kmh SSE 10.4 mph16.7 kmh 29.88 in1011.9 mb - 0.00 in0.0 mm 0.00 in0.0 mm
07:45 AM 62.5°F16.9°C 59.5°F15.3°C 90% 4.6 mph SSE7.4 kmh SSE 8.1 mph13.0 kmh 29.88 in1011.9 mb - 0.00 in0.0 mm 0.00 in0.0 mm
07:40 AM 62.2°F16.8°C 59.2°F15.1°C 90% 4.6 mph SSE7.4 kmh SSE 6.9 mph11.1 kmh 29.88 in1011.9 mb - 0.00 in0.0 mm 0.00 in0.0 mm
07:35 AM 62.2°F16.8°C 59.3°F15.2°C 90% 6.9 mph SSE11.1 kmh SSE 6.9 mph11.1 kmh 29.88 in1011.9 mb - 0.00 in0.0 mm 0.00 in0.0 mm
07:30 AM 62.3°F16.8°C 59.4°F15.2°C 90% 4.6 mph S7.4 kmh S 4.6 mph7.4 kmh 29.88 in1011.9 mb - 0.00 in0.0 mm 0.00 in0.0 mm
07:25 AM 62.3°F16.8°C 59.3°F15.2°C 90% 6.9 mph SE11.1 kmh SE 11.5 mph18.5 kmh 29.88 in1011.9 mb - 0.00 in0.0 mm 0.00 in0.0 mm
07:20 AM 62.2°F16.8°C 59.2°F15.1°C 90% 4.6 mph SSE7.4 kmh SSE 10.4 mph16.7 kmh 29.89 in1012.2 mb - 0.00 in0.0 mm 0.00 in0.0 mm
07:15 AM 62.2°F16.8°C 59.2°F15.1°C 90% 4.6 mph SSE7.4 kmh SSE 5.8 mph9.3 kmh 29.89 in1012.2 mb - 0.00 in0.0 mm 0.00 in0.0 mm
07:10 AM 62.1°F16.7°C 59.1°F15.1°C 90% 6.9 mph SE11.1 kmh SE 9.2 mph14.8 kmh 29.88 in1011.9 mb - 0.00 in0.0 mm 0.00 in0.0 mm
07:05 AM 62.1°F16.7°C 59.1°F15.1°C 90% 4.6 mph SSE7.4 kmh SSE 8.1 mph13.0 kmh 29.89 in1012.2 mb - 0.00 in0.0 mm 0.00 in0.0 mm
07:00 AM 61.9°F16.6°C 58.9°F14.9°C 90% 5.8 mph SSE9.3 kmh SSE 11.5 mph18.5 kmh 29.89 in1012.2 mb - 0.00 in0.0 mm 0.00 in0.0 mm
06:55 AM 61.8°F16.6°C 58.8°F14.9°C 90% 6.9 mph S11.1 kmh S 12.7 mph20.4 kmh 29.89 in1012.2 mb - 0.00 in0.0 mm 0.00 in0.0 mm
06:50 AM 61.8°F16.6°C 58.8°F14.9°C 90% 6.9 mph SSE11.1 kmh SSE 8.1 mph13.0 kmh 29.88 in1011.9 mb - 0.00 in0.0 mm 0.00 in0.0 mm
06:45 AM 61.6°F16.4°C 58.6°F14.8°C 90% 5.8 mph SSE9.3 kmh SSE 9.2 mph14.8 kmh 29.89 in1012.2 mb - 0.00 in0.0 mm 0.00 in0.0 mm
06:40 AM 61.6°F16.4°C 58.3°F14.6°C 89% 5.8 mph SSE9.3 kmh SSE 10.4 mph16.7 kmh 29.89 in1012.2 mb - 0.00 in0.0 mm 0.00 in0.0 mm
06:35 AM 61.8°F16.6°C 58.5°F14.7°C 89% 5.8 mph SSE9.3 kmh SSE 9.2 mph14.8 kmh 29.89 in1012.2 mb - 0.00 in0.0 mm 0.00 in0.0 mm
06:30 AM 61.8°F16.6°C 58.5°F14.7°C 89% 8.1 mph SSE13.0 kmh SSE 12.7 mph20.4 kmh 29.88 in1011.9 mb - 0.00 in0.0 mm 0.00 in0.0 mm
06:25 AM 61.8°F16.6°C 58.5°F14.7°C 89% 6.9 mph SSE11.1 kmh SSE 10.4 mph16.7 kmh 29.88 in1011.9 mb - 0.00 in0.0 mm 0.00 in0.0 mm
06:20 AM 61.9°F16.6°C 58.3°F14.6°C 88% 6.9 mph SSE11.1 kmh SSE 16.1 mph25.9 kmh 29.88 in1011.9 mb - 0.00 in0.0 mm 0.00 in0.0 mm
06:15 AM 61.8°F16.6°C 58.2°F14.6°C 88% 6.9 mph SE11.1 kmh SE 13.8 mph22.2 kmh 29.88 in1011.9 mb - 0.00 in0.0 mm 0.00 in0.0 mm
06:10 AM 61.8°F16.6°C 58.2°F14.6°C 88% 6.9 mph SSE11.1 kmh SSE 8.1 mph13.0 kmh 29.89 in1012.2 mb - 0.00 in0.0 mm 0.00 in0.0 mm
06:05 AM 61.8°F16.6°C 58.2°F14.6°C 88% 8.1 mph SE13.0 kmh SE 12.7 mph20.4 kmh 29.89 in1012.2 mb - 0.00 in0.0 mm 0.00 in0.0 mm
06:00 AM 62.1°F16.7°C 58.1°F14.5°C 87% 4.6 mph S7.4 kmh S 8.1 mph13.0 kmh 29.88 in1011.9 mb - 0.00 in0.0 mm 0.00 in0.0 mm
05:55 AM 62.3°F16.8°C 58.3°F14.6°C 87% 4.6 mph SSE7.4 kmh SSE 11.5 mph18.5 kmh 29.88 in1011.9 mb - 0.00 in0.0 mm 0.00 in0.0 mm
05:50 AM 62.4°F16.9°C 58.5°F14.7°C 87% 5.8 mph SSE9.3 kmh SSE 10.4 mph16.7 kmh 29.88 in1011.9 mb - 0.00 in0.0 mm 0.00 in0.0 mm
05:45 AM 62.5°F16.9°C 58.6°F14.8°C 87% 8.1 mph SE13.0 kmh SE 11.5 mph18.5 kmh 29.88 in1011.9 mb - 0.00 in0.0 mm 0.00 in0.0 mm
05:40 AM 62.6°F17.0°C 58.4°F14.7°C 86% 5.8 mph SE9.3 kmh SE 10.4 mph16.7 kmh 29.88 in1011.9 mb - 0.00 in0.0 mm 0.00 in0.0 mm
05:35 AM 62.7°F17.1°C 58.5°F14.7°C 86% 5.8 mph SE9.3 kmh SE 6.9 mph11.1 kmh 29.88 in1011.9 mb - 0.00 in0.0 mm 0.00 in0.0 mm
05:30 AM 62.7°F17.1°C 58.5°F14.7°C 86% 6.9 mph SSE11.1 kmh SSE 10.4 mph16.7 kmh 29.89 in1012.2 mb - 0.00 in0.0 mm 0.00 in0.0 mm
05:25 AM 62.7°F17.1°C 58.4°F14.7°C 86% 4.6 mph SSE7.4 kmh SSE 8.1 mph13.0 kmh 29.89 in1012.2 mb - 0.00 in0.0 mm 0.00 in0.0 mm
05:20 AM 62.8°F17.1°C 58.2°F14.6°C 85% 5.8 mph S9.3 kmh S 9.2 mph14.8 kmh 29.89 in1012.2 mb - 0.00 in0.0 mm 0.00 in0.0 mm
05:15 AM 62.9°F17.2°C 58.6°F14.8°C 86% 5.8 mph SSE9.3 kmh SSE 11.5 mph18.5 kmh 29.89 in1012.2 mb - 0.00 in0.0 mm 0.00 in0.0 mm
05:10 AM 63.0°F17.2°C 58.7°F14.8°C 86% 4.6 mph SSE7.4 kmh SSE 5.8 mph9.3 kmh 29.89 in1012.2 mb - 0.00 in0.0 mm 0.00 in0.0 mm
05:05 AM 62.9°F17.2°C 58.6°F14.8°C 86% 6.9 mph SSE11.1 kmh SSE 11.5 mph18.5 kmh 29.89 in1012.2 mb - 0.00 in0.0 mm 0.00 in0.0 mm
05:00 AM 63.0°F17.2°C 58.7°F14.8°C 86% 8.1 mph S13.0 kmh S 12.7 mph20.4 kmh 29.89 in1012.2 mb - 0.00 in0.0 mm 0.00 in0.0 mm
04:55 AM 63.0°F17.2°C 59.1°F15.1°C 87% 6.9 mph S11.1 kmh S 12.7 mph20.4 kmh 29.89 in1012.2 mb - 0.00 in0.0 mm 0.00 in0.0 mm
04:50 AM 62.9°F17.2°C 59.0°F15.0°C 87% 8.1 mph SSE13.0 kmh SSE 12.7 mph20.4 kmh 29.89 in1012.2 mb - 0.00 in0.0 mm 0.00 in0.0 mm
04:45 AM 62.9°F17.2°C 59.0°F15.0°C 87% 8.1 mph SSE13.0 kmh SSE 9.2 mph14.8 kmh 29.89 in1012.2 mb - 0.00 in0.0 mm 0.00 in0.0 mm
04:40 AM 62.8°F17.1°C 58.9°F14.9°C 87% 9.2 mph S14.8 kmh S 15.0 mph24.1 kmh 29.89 in1012.2 mb - 0.00 in0.0 mm 0.00 in0.0 mm
04:35 AM 62.8°F17.1°C 58.9°F14.9°C 87% 8.1 mph SSE13.0 kmh SSE 9.2 mph14.8 kmh 29.89 in1012.2 mb - 0.00 in0.0 mm 0.00 in0.0 mm
04:30 AM 62.8°F17.1°C 58.9°F14.9°C 87% 5.8 mph SSE9.3 kmh SSE 9.2 mph14.8 kmh 29.88 in1011.9 mb - 0.00 in0.0 mm 0.00 in0.0 mm
04:25 AM 62.8°F17.1°C 58.9°F14.9°C 87% 8.1 mph SSE13.0 kmh SSE 11.5 mph18.5 kmh 29.88 in1011.9 mb - 0.00 in0.0 mm 0.00 in0.0 mm
04:20 AM 62.7°F17.1°C 58.8°F14.9°C 87% 9.2 mph SE14.8 kmh SE 19.6 mph31.5 kmh 29.89 in1012.2 mb - 0.00 in0.0 mm 0.00 in0.0 mm
04:15 AM 62.7°F17.1°C 58.8°F14.9°C 87% 4.6 mph S7.4 kmh S 10.4 mph16.7 kmh 29.88 in1011.9 mb - 0.00 in0.0 mm 0.00 in0.0 mm
04:10 AM 62.7°F17.1°C 58.8°F14.9°C 87% 6.9 mph SSE11.1 kmh SSE 9.2 mph14.8 kmh 29.88 in1011.9 mb - 0.00 in0.0 mm 0.00 in0.0 mm
04:05 AM 62.7°F17.1°C 58.8°F14.9°C 87% 5.8 mph SSE9.3 kmh SSE 13.8 mph22.2 kmh 29.88 in1011.9 mb - 0.00 in0.0 mm 0.00 in0.0 mm
04:00 AM 62.6°F17.0°C 58.7°F14.8°C 87% 9.2 mph SSE14.8 kmh SSE 12.7 mph20.4 kmh 29.88 in1011.9 mb - 0.00 in0.0 mm 0.00 in0.0 mm
03:55 AM 62.6°F17.0°C 58.7°F14.8°C 87% 6.9 mph SSE11.1 kmh SSE 11.5 mph18.5 kmh 29.88 in1011.9 mb - 0.00 in0.0 mm 0.00 in0.0 mm
03:50 AM 62.6°F17.0°C 58.6°F14.8°C 87% 5.8 mph SE9.3 kmh SE 13.8 mph22.2 kmh 29.88 in1011.9 mb - 0.00 in0.0 mm 0.00 in0.0 mm
03:45 AM 62.4°F16.9°C 58.5°F14.7°C 87% 6.9 mph SSE11.1 kmh SSE 12.7 mph20.4 kmh 29.88 in1011.9 mb - 0.00 in0.0 mm 0.00 in0.0 mm
03:40 AM 62.4°F16.9°C 58.5°F14.7°C 87% 5.8 mph SSE9.3 kmh SSE 9.2 mph14.8 kmh 29.89 in1012.2 mb - 0.00 in0.0 mm 0.00 in0.0 mm
03:35 AM 62.4°F16.9°C 58.5°F14.7°C 87% 5.8 mph SSE9.3 kmh SSE 6.9 mph11.1 kmh 29.89 in1012.2 mb - 0.00 in0.0 mm 0.00 in0.0 mm
03:30 AM 62.4°F16.9°C 58.5°F14.7°C 87% 8.1 mph S13.0 kmh S 12.7 mph20.4 kmh 29.89 in1012.2 mb - 0.00 in0.0 mm 0.00 in0.0 mm
03:25 AM 62.3°F16.8°C 58.4°F14.7°C 87% 9.2 mph S14.8 kmh S 12.7 mph20.4 kmh 29.90 in1012.5 mb - 0.00 in0.0 mm 0.00 in0.0 mm
03:20 AM 62.2°F16.8°C 58.6°F14.8°C 88% 8.1 mph S13.0 kmh S 15.0 mph24.1 kmh 29.90 in1012.5 mb - 0.00 in0.0 mm 0.00 in0.0 mm
03:15 AM 62.1°F16.7°C 58.5°F14.7°C 88% 5.8 mph SSE9.3 kmh SSE 10.4 mph16.7 kmh 29.91 in1012.9 mb - 0.00 in0.0 mm 0.00 in0.0 mm
03:10 AM 62.0°F16.7°C 58.4°F14.7°C 88% 6.9 mph SSE11.1 kmh SSE 12.7 mph20.4 kmh 29.91 in1012.9 mb - 0.00 in0.0 mm 0.00 in0.0 mm
03:05 AM 62.0°F16.7°C 58.4°F14.7°C 88% 8.1 mph SE13.0 kmh SE 13.8 mph22.2 kmh 29.91 in1012.9 mb - 0.00 in0.0 mm 0.00 in0.0 mm
03:00 AM 61.8°F16.6°C 58.2°F14.6°C 88% 5.8 mph SSE9.3 kmh SSE 10.4 mph16.7 kmh 29.91 in1012.9 mb - 0.00 in0.0 mm 0.00 in0.0 mm
02:55 AM 61.6°F16.4°C 58.0°F14.4°C 88% 5.8 mph SSE9.3 kmh SSE 15.0 mph24.1 kmh 29.91 in1012.9 mb - 0.00 in0.0 mm 0.00 in0.0 mm
02:50 AM 61.6°F16.4°C 58.0°F14.4°C 88% 5.8 mph SSE9.3 kmh SSE 9.2 mph14.8 kmh 29.91 in1012.9 mb - 0.00 in0.0 mm 0.00 in0.0 mm
02:45 AM 61.6°F16.4°C 58.0°F14.4°C 88% 6.9 mph SSE11.1 kmh SSE 12.7 mph20.4 kmh 29.90 in1012.5 mb - 0.00 in0.0 mm 0.00 in0.0 mm
02:40 AM 61.5°F16.4°C 57.9°F14.4°C 88% 4.6 mph S7.4 kmh S 8.1 mph13.0 kmh 29.90 in1012.5 mb - 0.00 in0.0 mm 0.00 in0.0 mm
02:35 AM 61.5°F16.4°C 57.9°F14.4°C 88% 5.8 mph SSE9.3 kmh SSE 10.4 mph16.7 kmh 29.90 in1012.5 mb - 0.00 in0.0 mm 0.00 in0.0 mm
02:30 AM 61.5°F16.4°C 57.9°F14.4°C 88% 6.9 mph SSE11.1 kmh SSE 9.2 mph14.8 kmh 29.90 in1012.5 mb - 0.00 in0.0 mm 0.00 in0.0 mm
02:25 AM 61.5°F16.4°C 57.9°F14.4°C 88% 9.2 mph SSE14.8 kmh SSE 11.5 mph18.5 kmh 29.90 in1012.5 mb - 0.00 in0.0 mm 0.00 in0.0 mm
02:20 AM 61.5°F16.4°C 57.9°F14.4°C 88% 6.9 mph SSE11.1 kmh SSE 13.8 mph22.2 kmh 29.90 in1012.5 mb - 0.00 in0.0 mm 0.00 in0.0 mm
02:15 AM 61.4°F16.3°C 57.8°F14.3°C 88% 5.8 mph SSE9.3 kmh SSE 11.5 mph18.5 kmh 29.90 in1012.5 mb - 0.00 in0.0 mm 0.00 in0.0 mm
02:10 AM 61.3°F16.3°C 57.7°F14.3°C 88% 5.8 mph SSE9.3 kmh SSE 8.1 mph13.0 kmh 29.90 in1012.5 mb - 0.00 in0.0 mm 0.00 in0.0 mm
02:05 AM 61.4°F16.3°C 57.8°F14.3°C 88% 5.8 mph SE9.3 kmh SE 9.2 mph14.8 kmh 29.90 in1012.5 mb - 0.00 in0.0 mm 0.00 in0.0 mm
02:00 AM 61.4°F16.3°C 57.8°F14.3°C 88% 5.8 mph SE9.3 kmh SE 9.2 mph14.8 kmh 29.90 in1012.5 mb - 0.00 in0.0 mm 0.00 in0.0 mm
01:55 AM 61.5°F16.4°C 57.9°F14.4°C 88% 6.9 mph SSE11.1 kmh SSE 11.5 mph18.5 kmh 29.90 in1012.5 mb - 0.00 in0.0 mm 0.00 in0.0 mm
01:50 AM 61.4°F16.3°C 57.8°F14.3°C 88% 8.1 mph S13.0 kmh S 11.5 mph18.5 kmh 29.90 in1012.5 mb - 0.00 in0.0 mm 0.00 in0.0 mm
01:45 AM 61.4°F16.3°C 57.8°F14.3°C 88% 6.9 mph SSE11.1 kmh SSE 13.8 mph22.2 kmh 29.90 in1012.5 mb - 0.00 in0.0 mm 0.00 in0.0 mm
01:40 AM 61.4°F16.3°C 57.8°F14.3°C 88% 6.9 mph SSE11.1 kmh SSE 12.7 mph20.4 kmh 29.90 in1012.5 mb - 0.00 in0.0 mm 0.00 in0.0 mm
01:35 AM 61.5°F16.4°C 57.9°F14.4°C 88% 8.1 mph SSE13.0 kmh SSE 12.7 mph20.4 kmh 29.90 in1012.5 mb - 0.00 in0.0 mm 0.00 in0.0 mm
01:30 AM 61.6°F16.4°C 58.0°F14.4°C 88% 9.2 mph SE14.8 kmh SE 12.7 mph20.4 kmh 29.90 in1012.5 mb - 0.00 in0.0 mm 0.00 in0.0 mm
01:25 AM 61.7°F16.5°C 58.1°F14.5°C 88% 9.2 mph SSE14.8 kmh SSE 19.6 mph31.5 kmh 29.90 in1012.5 mb - 0.00 in0.0 mm 0.00 in0.0 mm
01:20 AM 61.7°F16.5°C 58.1°F14.5°C 88% 8.1 mph SE13.0 kmh SE 17.3 mph27.8 kmh 29.91 in1012.9 mb - 0.00 in0.0 mm 0.00 in0.0 mm
01:15 AM 61.8°F16.6°C 58.2°F14.6°C 88% 9.2 mph SE14.8 kmh SE 16.1 mph25.9 kmh 29.90 in1012.5 mb - 0.00 in0.0 mm 0.00 in0.0 mm
01:10 AM 61.8°F16.6°C 58.2°F14.6°C 88% 10.4 mph SSE16.7 kmh SSE 12.7 mph20.4 kmh 29.91 in1012.9 mb - 0.00 in0.0 mm 0.00 in0.0 mm
01:05 AM 61.8°F16.6°C 58.2°F14.6°C 88% 8.1 mph SE13.0 kmh SE 13.8 mph22.2 kmh 29.91 in1012.9 mb - 0.00 in0.0 mm 0.00 in0.0 mm
01:00 AM 61.8°F16.6°C 58.2°F14.6°C 88% 10.4 mph SE16.7 kmh SE 16.1 mph25.9 kmh 29.91 in1012.9 mb - 0.00 in0.0 mm 0.00 in0.0 mm
12:55 AM 61.8°F16.6°C 58.2°F14.6°C 88% 6.9 mph SE11.1 kmh SE 9.2 mph14.8 kmh 29.91 in1012.9 mb - 0.00 in0.0 mm 0.00 in0.0 mm
12:50 AM 61.8°F16.6°C 58.2°F14.6°C 88% 6.9 mph SSE11.1 kmh SSE 12.7 mph20.4 kmh 29.91 in1012.9 mb - 0.00 in0.0 mm 0.00 in0.0 mm
12:45 AM 61.8°F16.6°C 58.2°F14.6°C 88% 9.2 mph SSE14.8 kmh SSE 15.0 mph24.1 kmh 29.91 in1012.9 mb - 0.00 in0.0 mm 0.00 in0.0 mm
12:40 AM 61.9°F16.6°C 58.0°F14.4°C 87% 6.9 mph SSE11.1 kmh SSE 11.5 mph18.5 kmh 29.91 in1012.9 mb - 0.00 in0.0 mm 0.00 in0.0 mm
12:35 AM 62.0°F16.7°C 58.0°F14.4°C 87% 5.8 mph SE9.3 kmh SE 8.1 mph13.0 kmh 29.91 in1012.9 mb - 0.00 in0.0 mm 0.00 in0.0 mm
12:30 AM 62.0°F16.7°C 58.1°F14.5°C 87% 8.1 mph SE13.0 kmh SE 9.2 mph14.8 kmh 29.91 in1012.9 mb - 0.00 in0.0 mm 0.00 in0.0 mm
12:25 AM 62.0°F16.7°C 58.1°F14.5°C 87% 6.9 mph SSE11.1 kmh SSE 10.4 mph16.7 kmh 29.91 in1012.9 mb - 0.00 in0.0 mm 0.00 in0.0 mm
12:20 AM 62.1°F16.7°C 58.2°F14.6°C 87% 8.1 mph SSE13.0 kmh SSE 17.3 mph27.8 kmh 29.91 in1012.9 mb - 0.00 in0.0 mm 0.00 in0.0 mm
12:15 AM 62.1°F16.7°C 58.2°F14.6°C 87% 8.1 mph SSE13.0 kmh SSE 13.8 mph22.2 kmh 29.91 in1012.9 mb - 0.00 in0.0 mm 0.00 in0.0 mm
12:10 AM 62.1°F16.7°C 58.2°F14.6°C 87% 9.2 mph SSE14.8 kmh SSE 13.8 mph22.2 kmh 29.91 in1012.9 mb - 0.00 in0.0 mm 0.00 in0.0 mm
12:05 AM 62.0°F16.7°C 58.1°F14.5°C 87% 9.2 mph SE14.8 kmh SE 12.7 mph20.4 kmh 29.91 in1012.9 mb - 0.00 in0.0 mm 0.00 in0.0 mm
12:00 AM 61.8°F16.6°C 57.6°F14.2°C 86% 6.9 mph S11.1 kmh S 12.7 mph20.4 kmh 29.91 in1012.9 mb - 0.00 in0.0 mm 0.00 in0.0 mm